sensor_id;sensor_type;location;lat;lon;timestamp;pressure;altitude;pressure_sealevel;temperature;humidity
36502;BME280;25393;46.108;3.390;2023-02-18T00:01:11;99410.84;;;11.02;100.00
36502;BME280;25393;46.108;3.390;2023-02-18T00:03:41;99400.91;;;10.94;100.00
36502;BME280;25393;46.108;3.390;2023-02-18T00:06:22;99408.47;;;10.99;100.00
36502;BME280;25393;46.108;3.390;2023-02-18T00:08:49;99413.34;;;10.94;100.00
36502;BME280;25393;46.108;3.390;2023-02-18T00:11:18;99414.03;;;10.96;100.00
36502;BME280;25393;46.108;3.390;2023-02-18T00:13:50;99406.22;;;10.94;100.00
36502;BME280;25393;46.108;3.390;2023-02-18T00:16:18;99408.88;;;10.94;100.00
36502;BME280;25393;46.108;3.390;2023-02-18T00:18:44;99397.44;;;11.03;100.00
36502;BME280;25393;46.108;3.390;2023-02-18T00:21:11;99395.50;;;11.15;100.00
36502;BME280;25393;46.108;3.390;2023-02-18T00:23:41;99374.94;;;11.17;100.00
36502;BME280;25393;46.108;3.390;2023-02-18T00:26:14;99393.13;;;11.22;100.00
36502;BME280;25393;46.108;3.390;2023-02-18T00:28:42;99379.56;;;11.15;100.00
36502;BME280;25393;46.108;3.390;2023-02-18T00:31:14;99376.50;;;11.10;100.00
36502;BME280;25393;46.108;3.390;2023-02-18T00:33:41;99376.50;;;11.10;100.00
36502;BME280;25393;46.108;3.390;2023-02-18T00:36:13;99373.97;;;11.09;100.00
36502;BME280;25393;46.108;3.390;2023-02-18T00:38:48;99378.19;;;11.11;100.00
36502;BME280;25393;46.108;3.390;2023-02-18T00:41:16;99363.91;;;11.02;100.00
36502;BME280;25393;46.108;3.390;2023-02-18T00:43:43;99371.75;;;11.04;100.00
36502;BME280;25393;46.108;3.390;2023-02-18T00:46:12;99374.25;;;11.06;100.00
36502;BME280;25393;46.108;3.390;2023-02-18T00:48:43;99358.91;;;10.99;100.00
36502;BME280;25393;46.108;3.390;2023-02-18T00:51:12;99363.75;;;10.94;100.00
36502;BME280;25393;46.108;3.390;2023-02-18T00:53:43;99361.56;;;10.90;100.00
36502;BME280;25393;46.108;3.390;2023-02-18T00:56:14;99372.03;;;11.01;100.00
36502;BME280;25393;46.108;3.390;2023-02-18T00:58:43;99365.28;;;10.87;100.00
36502;BME280;25393;46.108;3.390;2023-02-18T01:01:16;99356.38;;;10.79;100.00
36502;BME280;25393;46.108;3.390;2023-02-18T01:03:43;99358.47;;;10.85;100.00
36502;BME280;25393;46.108;3.390;2023-02-18T01:06:13;99365.59;;;10.84;100.00
36502;BME280;25393;46.108;3.390;2023-02-18T01:08:45;99359.44;;;10.84;100.00
36502;BME280;25393;46.108;3.390;2023-02-18T01:11:13;99336.97;;;10.69;100.00
36502;BME280;25393;46.108;3.390;2023-02-18T01:13:41;99343.81;;;10.71;100.00
36502;BME280;25393;46.108;3.390;2023-02-18T01:16:09;99362.94;;;10.84;100.00
36502;BME280;25393;46.108;3.390;2023-02-18T01:18:39;99364.06;;;10.82;100.00
36502;BME280;25393;46.108;3.390;2023-02-18T01:21:07;99358.63;;;10.83;100.00
36502;BME280;25393;46.108;3.390;2023-02-18T01:23:38;99351.91;;;10.89;100.00
36502;BME280;25393;46.108;3.390;2023-02-18T01:26:05;99347.44;;;10.89;100.00
36502;BME280;25393;46.108;3.390;2023-02-18T01:28:33;99356.25;;;10.90;100.00
36502;BME280;25393;46.108;3.390;2023-02-18T01:31:08;99351.34;;;10.85;100.00
36502;BME280;25393;46.108;3.390;2023-02-18T01:33:35;99342.16;;;10.80;100.00
36502;BME280;25393;46.108;3.390;2023-02-18T01:36:02;99350.78;;;10.82;100.00
36502;BME280;25393;46.108;3.390;2023-02-18T01:38:29;99347.16;;;10.83;100.00
36502;BME280;25393;46.108;3.390;2023-02-18T01:40:55;99345.19;;;10.85;100.00
36502;BME280;25393;46.108;3.390;2023-02-18T01:43:22;99344.63;;;10.91;100.00
36502;BME280;25393;46.108;3.390;2023-02-18T01:46:16;99350.94;;;10.99;100.00
36502;BME280;25393;46.108;3.390;2023-02-18T01:48:49;99345.34;;;10.93;100.00
36502;BME280;25393;46.108;3.390;2023-02-18T01:51:21;99335.03;;;10.90;100.00
36502;BME280;25393;46.108;3.390;2023-02-18T01:56:50;99337.97;;;10.96;100.00
36502;BME280;25393;46.108;3.390;2023-02-18T01:59:29;99346.47;;;11.00;100.00
36502;BME280;25393;46.108;3.390;2023-02-18T02:01:57;99341.28;;;10.98;100.00
36502;BME280;25393;46.108;3.390;2023-02-18T02:04:24;99338.22;;;11.03;100.00
36502;BME280;25393;46.108;3.390;2023-02-18T02:06:51;99337.13;;;10.96;100.00
36502;BME280;25393;46.108;3.390;2023-02-18T02:09:19;99317.00;;;10.84;100.00
36502;BME280;25393;46.108;3.390;2023-02-18T02:15:38;99323.69;;;10.88;100.00
36502;BME280;25393;46.108;3.390;2023-02-18T02:22:59;99325.38;;;10.89;100.00
36502;BME280;25393;46.108;3.390;2023-02-18T02:34:17;99313.06;;;10.59;100.00
36502;BME280;25393;46.108;3.390;2023-02-18T02:37:07;99315.59;;;10.61;100.00
36502;BME280;25393;46.108;3.390;2023-02-18T02:39:53;99314.19;;;10.57;100.00
36502;BME280;25393;46.108;3.390;2023-02-18T02:45:10;99304.31;;;10.59;100.00
36502;BME280;25393;46.108;3.390;2023-02-18T02:48:14;99307.22;;;10.56;100.00
36502;BME280;25393;46.108;3.390;2023-02-18T02:51:23;99299.81;;;10.49;100.00
36502;BME280;25393;46.108;3.390;2023-02-18T02:53:41;99277.78;;;10.49;100.00
36502;BME280;25393;46.108;3.390;2023-02-18T02:56:17;99290.22;;;10.58;100.00
36502;BME280;25393;46.108;3.390;2023-02-18T02:58:49;99292.44;;;10.63;100.00
36502;BME280;25393;46.108;3.390;2023-02-18T03:09:16;99281.25;;;10.59;100.00
36502;BME280;25393;46.108;3.390;2023-02-18T03:12:17;99297.03;;;10.61;100.00
36502;BME280;25393;46.108;3.390;2023-02-18T03:15:07;99285.88;;;10.57;100.00
36502;BME280;25393;46.108;3.390;2023-02-18T03:17:40;99284.31;;;10.45;100.00
36502;BME280;25393;46.108;3.390;2023-02-18T03:20:27;99282.09;;;10.40;100.00
36502;BME280;25393;46.108;3.390;2023-02-18T03:22:59;99283.06;;;10.30;100.00
36502;BME280;25393;46.108;3.390;2023-02-18T03:25:27;99277.91;;;10.38;100.00
36502;BME280;25393;46.108;3.390;2023-02-18T03:27:57;99279.19;;;10.34;100.00
36502;BME280;25393;46.108;3.390;2023-02-18T03:30:32;99280.41;;;10.30;100.00
36502;BME280;25393;46.108;3.390;2023-02-18T03:33:03;99281.25;;;10.30;100.00
36502;BME280;25393;46.108;3.390;2023-02-18T03:35:31;99261.16;;;10.28;100.00
36502;BME280;25393;46.108;3.390;2023-02-18T03:41:03;99277.63;;;10.31;100.00
36502;BME280;25393;46.108;3.390;2023-02-18T03:43:30;99268.13;;;10.19;100.00
36502;BME280;25393;46.108;3.390;2023-02-18T03:45:57;99264.25;;;10.23;100.00
36502;BME280;25393;46.108;3.390;2023-02-18T03:48:25;99272.19;;;10.33;100.00
36502;BME280;25393;46.108;3.390;2023-02-18T03:50:51;99275.81;;;10.41;100.00
36502;BME280;25393;46.108;3.390;2023-02-18T03:53:18;99271.09;;;10.55;100.00
36502;BME280;25393;46.108;3.390;2023-02-18T03:55:47;99269.97;;;10.57;100.00
36502;BME280;25393;46.108;3.390;2023-02-18T03:58:14;99253.22;;;10.57;100.00
36502;BME280;25393;46.108;3.390;2023-02-18T04:00:40;99269.00;;;10.58;100.00
36502;BME280;25393;46.108;3.390;2023-02-18T04:03:07;99255.31;;;10.43;100.00
36502;BME280;25393;46.108;3.390;2023-02-18T04:05:33;99263.00;;;10.56;100.00
36502;BME280;25393;46.108;3.390;2023-02-18T04:08:00;99258.97;;;10.62;100.00
36502;BME280;25393;46.108;3.390;2023-02-18T04:10:26;99275.16;;;10.59;100.00
36502;BME280;25393;46.108;3.390;2023-02-18T04:12:53;99253.63;;;10.42;100.00
36502;BME280;25393;46.108;3.390;2023-02-18T04:15:19;99260.63;;;10.53;100.00
36502;BME280;25393;46.108;3.390;2023-02-18T04:17:48;99263.69;;;10.48;100.00
36502;BME280;25393;46.108;3.390;2023-02-18T04:20:15;99271.50;;;10.50;100.00
36502;BME280;25393;46.108;3.390;2023-02-18T04:22:42;99261.72;;;10.31;100.00
36502;BME280;25393;46.108;3.390;2023-02-18T04:25:08;99261.16;;;10.28;100.00
36502;BME280;25393;46.108;3.390;2023-02-18T04:27:35;99261.16;;;10.28;100.00
36502;BME280;25393;46.108;3.390;2023-02-18T04:30:03;99264.94;;;10.25;100.00
36502;BME280;25393;46.108;3.390;2023-02-18T04:32:29;99261.59;;;10.23;100.00
36502;BME280;25393;46.108;3.390;2023-02-18T04:34:56;99256.13;;;10.25;100.00
36502;BME280;25393;46.108;3.390;2023-02-18T04:37:26;99250.84;;;10.25;100.00
36502;BME280;25393;46.108;3.390;2023-02-18T04:39:55;99246.34;;;10.06;100.00
36502;BME280;25393;46.108;3.390;2023-02-18T04:42:22;99254.53;;;10.03;100.00
36502;BME280;25393;46.108;3.390;2023-02-18T04:44:52;99261.72;;;10.22;100.00
36502;BME280;25393;46.108;3.390;2023-02-18T04:47:22;99248.06;;;10.17;100.00
36502;BME280;25393;46.108;3.390;2023-02-18T04:49:51;99258.38;;;10.20;100.00
36502;BME280;25393;46.108;3.390;2023-02-18T04:52:18;99245.50;;;10.06;100.00
36502;BME280;25393;46.108;3.390;2023-02-18T04:54:44;99245.22;;;10.09;100.00
36502;BME280;25393;46.108;3.390;2023-02-18T04:57:11;99254.69;;;10.11;100.00
36502;BME280;25393;46.108;3.390;2023-02-18T04:59:38;99251.06;;;10.02;100.00
36502;BME280;25393;46.108;3.390;2023-02-18T05:02:04;99255.22;;;9.95;100.00
36502;BME280;25393;46.108;3.390;2023-02-18T05:04:31;99237.94;;;9.91;100.00
36502;BME280;25393;46.108;3.390;2023-02-18T05:06:58;99249.94;;;10.05;100.00
36502;BME280;25393;46.108;3.390;2023-02-18T05:09:27;99234.06;;;10.05;100.00
36502;BME280;25393;46.108;3.390;2023-02-18T05:11:56;99238.22;;;10.08;100.00
36502;BME280;25393;46.108;3.390;2023-02-18T05:14:23;99242.69;;;10.07;100.00
36502;BME280;25393;46.108;3.390;2023-02-18T05:16:51;99230.13;;;9.99;100.00
36502;BME280;25393;46.108;3.390;2023-02-18T05:19:18;99240.59;;;10.01;100.00
36502;BME280;25393;46.108;3.390;2023-02-18T05:21:44;99237.66;;;10.04;100.00
36502;BME280;25393;46.108;3.390;2023-02-18T05:24:11;99241.16;;;10.04;100.00
36502;BME280;25393;46.108;3.390;2023-02-18T05:26:38;99244.78;;;10.03;100.00
36502;BME280;25393;46.108;3.390;2023-02-18T05:29:04;99242.00;;;10.05;100.00
36502;BME280;25393;46.108;3.390;2023-02-18T05:31:31;99242.13;;;10.03;100.00
36502;BME280;25393;46.108;3.390;2023-02-18T05:33:58;99232.75;;;9.99;100.00
36502;BME280;25393;46.108;3.390;2023-02-18T05:36:24;99246.75;;;10.11;100.00
36502;BME280;25393;46.108;3.390;2023-02-18T05:38:53;99244.09;;;10.01;100.00
36502;BME280;25393;46.108;3.390;2023-02-18T05:41:23;99232.91;;;9.98;100.00
36502;BME280;25393;46.108;3.390;2023-02-18T05:43:50;99252.44;;;10.07;100.00
36502;BME280;25393;46.108;3.390;2023-02-18T05:46:35;99246.84;;;10.00;100.00
36502;BME280;25393;46.108;3.390;2023-02-18T05:49:01;99251.88;;;10.03;100.00
36502;BME280;25393;46.108;3.390;2023-02-18T05:51:28;99239.47;;;10.03;100.00
36502;BME280;25393;46.108;3.390;2023-02-18T05:53:54;99235.72;;;10.06;100.00
36502;BME280;25393;46.108;3.390;2023-02-18T05:56:23;99237.09;;;10.10;100.00
36502;BME280;25393;46.108;3.390;2023-02-18T05:58:50;99240.47;;;10.12;100.00
36502;BME280;25393;46.108;3.390;2023-02-18T06:01:16;99239.75;;;10.10;100.00
36502;BME280;25393;46.108;3.390;2023-02-18T06:03:43;99229.88;;;10.02;100.00
36502;BME280;25393;46.108;3.390;2023-02-18T06:06:10;99244.84;;;10.23;100.00
36502;BME280;25393;46.108;3.390;2023-02-18T06:08:37;99251.69;;;10.25;100.00
36502;BME280;25393;46.108;3.390;2023-02-18T06:11:04;99242.31;;;10.21;100.00
36502;BME280;25393;46.108;3.390;2023-02-18T06:13:30;99234.34;;;10.12;100.00
36502;BME280;25393;46.108;3.390;2023-02-18T06:16:00;99235.78;;;10.16;100.00
36502;BME280;25393;46.108;3.390;2023-02-18T06:18:30;99238.94;;;10.10;100.00
36502;BME280;25393;46.108;3.390;2023-02-18T06:21:00;99247.47;;;10.13;100.00
36502;BME280;25393;46.108;3.390;2023-02-18T06:23:31;99235.13;;;9.93;100.00
36502;BME280;25393;46.108;3.390;2023-02-18T06:25:58;99237.81;;;10.02;100.00
36502;BME280;25393;46.108;3.390;2023-02-18T06:28:25;99234.06;;;10.05;100.00
36502;BME280;25393;46.108;3.390;2023-02-18T06:30:54;99242.69;;;10.07;100.00
36502;BME280;25393;46.108;3.390;2023-02-18T06:33:29;99219.28;;;10.02;100.00
36502;BME280;25393;46.108;3.390;2023-02-18T06:36:01;99244.41;;;10.18;100.00
36502;BME280;25393;46.108;3.390;2023-02-18T06:38:29;99237.47;;;10.17;100.00
36502;BME280;25393;46.108;3.390;2023-02-18T06:41:00;99238.31;;;10.27;100.00
36502;BME280;25393;46.108;3.390;2023-02-18T06:43:28;99230.47;;;10.25;100.00
36502;BME280;25393;46.108;3.390;2023-02-18T06:45:55;99237.66;;;10.14;100.00
36502;BME280;25393;46.108;3.390;2023-02-18T06:48:29;99237.66;;;10.14;100.00
36502;BME280;25393;46.108;3.390;2023-02-18T06:50:59;99248.53;;;10.11;100.00
36502;BME280;25393;46.108;3.390;2023-02-18T06:53:28;99257.72;;;10.07;100.00
36502;BME280;25393;46.108;3.390;2023-02-18T06:56:00;99251.06;;;10.12;100.00
36502;BME280;25393;46.108;3.390;2023-02-18T06:58:29;99244.50;;;10.07;100.00
36502;BME280;25393;46.108;3.390;2023-02-18T07:01:00;99250.22;;;10.12;100.00
36502;BME280;25393;46.108;3.390;2023-02-18T07:03:29;99243.25;;;10.11;100.00
36502;BME280;25393;46.108;3.390;2023-02-18T07:06:00;99234.94;;;10.15;100.00
36502;BME280;25393;46.108;3.390;2023-02-18T07:08:29;99246.94;;;10.29;100.00
36502;BME280;25393;46.108;3.390;2023-02-18T07:10:58;99251.00;;;10.23;100.00
36502;BME280;25393;46.108;3.390;2023-02-18T07:13:28;99247.50;;;10.23;100.00
36502;BME280;25393;46.108;3.390;2023-02-18T07:15:54;99238.59;;;10.24;100.00
36502;BME280;25393;46.108;3.390;2023-02-18T07:18:23;99254.88;;;10.29;100.00
36502;BME280;25393;46.108;3.390;2023-02-18T07:20:50;99257.53;;;10.29;100.00
36502;BME280;25393;46.108;3.390;2023-02-18T07:23:16;99257.41;;;10.30;100.00
36502;BME280;25393;46.108;3.390;2023-02-18T07:25:43;99269.81;;;10.39;100.00
36502;BME280;25393;46.108;3.390;2023-02-18T07:28:10;99256.56;;;10.39;100.00
36502;BME280;25393;46.108;3.390;2023-02-18T07:30:36;99267.44;;;10.56;100.00
36502;BME280;25393;46.108;3.390;2023-02-18T07:33:03;99265.78;;;10.64;100.00
36502;BME280;25393;46.108;3.390;2023-02-18T07:35:29;99264.25;;;10.71;100.00
36502;BME280;25393;46.108;3.390;2023-02-18T07:37:57;99255.63;;;10.69;100.00
36502;BME280;25393;46.108;3.390;2023-02-18T07:40:28;99261.75;;;10.79;100.00
36502;BME280;25393;46.108;3.390;2023-02-18T07:42:59;99220.03;;;10.62;100.00
36502;BME280;25393;46.108;3.390;2023-02-18T07:45:29;99200.38;;;10.55;100.00
36502;BME280;25393;46.108;3.390;2023-02-18T07:47:56;99252.22;;;10.96;100.00
36502;BME280;25393;46.108;3.390;2023-02-18T07:50:26;99268.94;;;11.16;100.00
36502;BME280;25393;46.108;3.390;2023-02-18T07:52:54;99268.66;;;11.09;100.00
36502;BME280;25393;46.108;3.390;2023-02-18T07:55:21;99272.44;;;11.16;100.00
36502;BME280;25393;46.108;3.390;2023-02-18T07:57:48;99277.31;;;11.21;100.00
36502;BME280;25393;46.108;3.390;2023-02-18T08:00:29;99261.72;;;11.08;100.00
36502;BME280;25393;46.108;3.390;2023-02-18T08:02:57;99271.75;;;11.14;100.00
36502;BME280;25393;46.108;3.390;2023-02-18T08:05:24;99275.38;;;11.13;100.00
36502;BME280;25393;46.108;3.390;2023-02-18T08:07:50;99284.03;;;11.15;100.00
36502;BME280;25393;46.108;3.390;2023-02-18T08:10:17;99273.44;;;11.15;100.00
36502;BME280;25393;46.108;3.390;2023-02-18T08:12:43;99274.53;;;11.22;100.00
36502;BME280;25393;46.108;3.390;2023-02-18T08:15:10;99280.22;;;11.27;100.00
36502;BME280;25393;46.108;3.390;2023-02-18T08:17:36;99262.38;;;11.20;100.00
36502;BME280;25393;46.108;3.390;2023-02-18T08:20:03;99264.31;;;11.27;100.00
36502;BME280;25393;46.108;3.390;2023-02-18T08:22:30;99264.81;;;11.40;100.00
36502;BME280;25393;46.108;3.390;2023-02-18T08:24:57;99267.06;;;11.45;100.00
36502;BME280;25393;46.108;3.390;2023-02-18T08:27:24;99268.56;;;11.57;100.00
36502;BME280;25393;46.108;3.390;2023-02-18T08:29:53;99260.28;;;11.60;100.00
36502;BME280;25393;46.108;3.390;2023-02-18T08:32:29;99273.50;;;11.79;100.00
36502;BME280;25393;46.108;3.390;2023-02-18T08:34:59;99262.34;;;11.76;100.00
36502;BME280;25393;46.108;3.390;2023-02-18T08:37:28;99268.44;;;11.86;100.00
36502;BME280;25393;46.108;3.390;2023-02-18T08:40:15;99271.75;;;11.97;100.00
36502;BME280;25393;46.108;3.390;2023-02-18T08:42:42;99282.19;;;12.09;100.00
36502;BME280;25393;46.108;3.390;2023-02-18T08:45:08;99252.81;;;12.10;100.00
36502;BME280;25393;46.108;3.390;2023-02-18T08:47:35;99270.50;;;12.19;100.00
36502;BME280;25393;46.108;3.390;2023-02-18T08:50:21;99261.94;;;12.25;100.00
36502;BME280;25393;46.108;3.390;2023-02-18T08:52:53;99266.41;;;12.25;100.00
36502;BME280;25393;46.108;3.390;2023-02-18T08:55:24;99275.91;;;12.27;100.00
36502;BME280;25393;46.108;3.390;2023-02-18T08:57:53;99282.97;;;12.36;100.00
36502;BME280;25393;46.108;3.390;2023-02-18T09:00:20;99273.06;;;12.38;100.00
36502;BME280;25393;46.108;3.390;2023-02-18T09:02:47;99284.81;;;12.53;100.00
36502;BME280;25393;46.108;3.390;2023-02-18T09:05:14;99283.66;;;12.56;100.00
36502;BME280;25393;46.108;3.390;2023-02-18T09:07:41;99256.53;;;12.52;100.00
36502;BME280;25393;46.108;3.390;2023-02-18T09:10:09;99270.69;;;12.71;100.00
36502;BME280;25393;46.108;3.390;2023-02-18T09:12:40;99278.66;;;12.88;100.00
36502;BME280;25393;46.108;3.390;2023-02-18T09:15:08;99283.66;;;12.91;100.00
36502;BME280;25393;46.108;3.390;2023-02-18T09:17:34;99286.72;;;12.96;100.00
36502;BME280;25393;46.108;3.390;2023-02-18T09:20:02;99289.13;;;13.08;100.00
36502;BME280;25393;46.108;3.390;2023-02-18T09:22:29;99295.44;;;13.24;100.00
36502;BME280;25393;46.108;3.390;2023-02-18T09:24:58;99288.97;;;13.27;100.00
36502;BME280;25393;46.108;3.390;2023-02-18T09:27:24;99295.56;;;13.40;100.00
36502;BME280;25393;46.108;3.390;2023-02-18T09:29:53;99282.03;;;13.34;100.00
36502;BME280;25393;46.108;3.390;2023-02-18T09:32:21;99302.22;;;13.44;100.00
36502;BME280;25393;46.108;3.390;2023-02-18T09:34:59;99295.97;;;13.28;100.00
36502;BME280;25393;46.108;3.390;2023-02-18T09:37:30;99282.00;;;13.08;100.00
36502;BME280;25393;46.108;3.390;2023-02-18T09:39:58;99284.97;;;13.23;100.00
36502;BME280;25393;46.108;3.390;2023-02-18T09:42:31;99300.16;;;13.56;100.00
36502;BME280;25393;46.108;3.390;2023-02-18T09:45:05;99301.91;;;13.73;100.00
36502;BME280;25393;46.108;3.390;2023-02-18T09:47:34;99304.16;;;13.94;100.00
36502;BME280;25393;46.108;3.390;2023-02-18T09:50:17;99291.72;;;14.02;100.00
36502;BME280;25393;46.108;3.390;2023-02-18T09:52:44;99267.78;;;14.11;100.00
36502;BME280;25393;46.108;3.390;2023-02-18T09:55:31;99302.25;;;14.62;100.00
36502;BME280;25393;46.108;3.390;2023-02-18T09:58:02;99299.59;;;14.78;100.00
36502;BME280;25393;46.108;3.390;2023-02-18T10:00:39;99298.13;;;14.92;97.55
36502;BME280;25393;46.108;3.390;2023-02-18T10:03:19;99296.28;;;15.00;99.53
36502;BME280;25393;46.108;3.390;2023-02-18T10:05:59;99299.47;;;15.04;94.87
36502;BME280;25393;46.108;3.390;2023-02-18T10:08:32;99293.28;;;14.87;95.18
36502;BME280;25393;46.108;3.390;2023-02-18T10:11:01;99291.13;;;14.83;95.45
36502;BME280;25393;46.108;3.390;2023-02-18T10:13:31;99294.63;;;14.99;94.40
36502;BME280;25393;46.108;3.390;2023-02-18T10:15:58;99293.97;;;15.22;91.79
36502;BME280;25393;46.108;3.390;2023-02-18T10:21:12;99297.97;;;15.02;85.33
36502;BME280;25393;46.108;3.390;2023-02-18T10:23:46;99291.94;;;14.75;90.32
36502;BME280;25393;46.108;3.390;2023-02-18T10:26:16;99280.09;;;14.62;89.83
36502;BME280;25393;46.108;3.390;2023-02-18T10:28:44;99281.94;;;14.77;91.66
36502;BME280;25393;46.108;3.390;2023-02-18T10:31:17;99276.59;;;14.85;90.47
36502;BME280;25393;46.108;3.390;2023-02-18T10:33:52;99282.47;;;15.05;87.78
36502;BME280;25393;46.108;3.390;2023-02-18T10:39:16;99289.13;;;15.09;84.23
36502;BME280;25393;46.108;3.390;2023-02-18T10:50:25;99275.41;;;15.53;83.25
36502;BME280;25393;46.108;3.390;2023-02-18T10:52:55;99279.56;;;15.47;80.81
36502;BME280;25393;46.108;3.390;2023-02-18T10:55:39;99282.94;;;15.41;81.35
36502;BME280;25393;46.108;3.390;2023-02-18T10:58:35;99276.59;;;15.26;82.47
36502;BME280;25393;46.108;3.390;2023-02-18T11:01:04;99281.44;;;15.06;84.01
36502;BME280;25393;46.108;3.390;2023-02-18T11:03:48;99279.63;;;14.98;83.22
36502;BME280;25393;46.108;3.390;2023-02-18T11:06:41;99277.06;;;14.57;80.44
36502;BME280;25393;46.108;3.390;2023-02-18T11:09:06;99279.28;;;14.77;82.06
36502;BME280;25393;46.108;3.390;2023-02-18T11:11:46;99267.78;;;15.09;80.43
36502;BME280;25393;46.108;3.390;2023-02-18T11:14:41;99279.75;;;15.29;76.91
36502;BME280;25393;46.108;3.390;2023-02-18T11:17:15;99260.38;;;15.27;76.88
36502;BME280;25393;46.108;3.390;2023-02-18T11:19:51;99267.44;;;15.04;74.49
36502;BME280;25393;46.108;3.390;2023-02-18T11:22:21;99264.41;;;14.99;77.06
36502;BME280;25393;46.108;3.390;2023-02-18T11:24:54;99265.78;;;14.95;76.15
36502;BME280;25393;46.108;3.390;2023-02-18T11:30:03;99262.59;;;15.16;73.20
36502;BME280;25393;46.108;3.390;2023-02-18T11:32:33;99259.56;;;15.11;73.65
36502;BME280;25393;46.108;3.390;2023-02-18T11:35:03;99250.69;;;15.34;73.65
36502;BME280;25393;46.108;3.390;2023-02-18T11:37:32;99248.00;;;15.59;72.80
36502;BME280;25393;46.108;3.390;2023-02-18T11:40:01;99247.13;;;15.66;69.84
36502;BME280;25393;46.108;3.390;2023-02-18T11:42:27;99239.56;;;15.86;69.66
36502;BME280;25393;46.108;3.390;2023-02-18T11:44:57;99229.41;;;16.12;66.99
36502;BME280;25393;46.108;3.390;2023-02-18T11:47:33;99230.00;;;16.22;66.73
36502;BME280;25393;46.108;3.390;2023-02-18T11:52:40;99224.00;;;16.20;65.50
36502;BME280;25393;46.108;3.390;2023-02-18T11:55:15;99224.72;;;16.14;65.10
36502;BME280;25393;46.108;3.390;2023-02-18T11:57:49;99218.75;;;16.04;66.78
36502;BME280;25393;46.108;3.390;2023-02-18T12:00:43;99218.75;;;16.04;67.63
36502;BME280;25393;46.108;3.390;2023-02-18T12:03:37;99213.69;;;15.78;67.09
36502;BME280;25393;46.108;3.390;2023-02-18T12:06:33;99220.31;;;15.35;69.71
36502;BME280;25393;46.108;3.390;2023-02-18T12:09:30;99198.00;;;15.04;71.42
36502;BME280;25393;46.108;3.390;2023-02-18T12:12:05;99197.31;;;15.18;72.77
36502;BME280;25393;46.108;3.390;2023-02-18T12:14:32;99187.91;;;15.46;70.93
36502;BME280;25393;46.108;3.390;2023-02-18T12:17:11;99188.06;;;15.53;70.57
36502;BME280;25393;46.108;3.390;2023-02-18T12:25:21;99184.88;;;15.58;67.91
36502;BME280;25393;46.108;3.390;2023-02-18T12:35:49;99165.44;;;17.96;61.48
36502;BME280;25393;46.108;3.390;2023-02-18T12:56:06;99143.34;;;21.08;47.98
36502;BME280;25393;46.108;3.390;2023-02-18T13:02:08;99131.69;;;19.62;52.49
36502;BME280;25393;46.108;3.390;2023-02-18T13:12:59;99112.69;;;20.83;53.16
36502;BME280;25393;46.108;3.390;2023-02-18T13:18:07;99105.81;;;21.90;46.84
36502;BME280;25393;46.108;3.390;2023-02-18T13:20:39;99108.72;;;22.27;47.30
36502;BME280;25393;46.108;3.390;2023-02-18T13:23:16;99098.94;;;21.88;45.76
36502;BME280;25393;46.108;3.390;2023-02-18T13:25:44;99090.75;;;20.53;46.59
36502;BME280;25393;46.108;3.390;2023-02-18T13:36:07;99091.16;;;20.57;51.56
36502;BME280;25393;46.108;3.390;2023-02-18T13:39:07;99086.47;;;21.36;48.24
36502;BME280;25393;46.108;3.390;2023-02-18T13:41:40;99082.84;;;20.84;49.24
36502;BME280;25393;46.108;3.390;2023-02-18T13:44:15;99078.66;;;20.16;50.88
36502;BME280;25393;46.108;3.390;2023-02-18T13:46:57;99077.69;;;19.57;51.94
36502;BME280;25393;46.108;3.390;2023-02-18T13:49:30;99079.59;;;19.28;52.16
36502;BME280;25393;46.108;3.390;2023-02-18T13:52:00;99086.56;;;18.82;52.67
36502;BME280;25393;46.108;3.390;2023-02-18T13:54:39;99088.75;;;18.72;54.08
36502;BME280;25393;46.108;3.390;2023-02-18T13:57:19;99076.81;;;18.25;54.04
36502;BME280;25393;46.108;3.390;2023-02-18T13:59:56;99072.19;;;17.98;55.73
36502;BME280;25393;46.108;3.390;2023-02-18T14:10:30;99068.34;;;17.35;59.11
36502;BME280;25393;46.108;3.390;2023-02-18T14:13:37;99053.09;;;17.86;57.69
36502;BME280;25393;46.108;3.390;2023-02-18T14:16:05;99050.97;;;18.24;56.10
36502;BME280;25393;46.108;3.390;2023-02-18T14:29:07;99047.00;;;18.41;53.52
36502;BME280;25393;46.108;3.390;2023-02-18T14:31:45;99054.84;;;18.15;53.30
36502;BME280;25393;46.108;3.390;2023-02-18T14:37:03;99048.88;;;18.69;53.41
36502;BME280;25393;46.108;3.390;2023-02-18T14:47:43;99024.59;;;21.03;47.49
36502;BME280;25393;46.108;3.390;2023-02-18T14:50:17;99022.25;;;21.26;46.36
36502;BME280;25393;46.108;3.390;2023-02-18T14:52:48;99015.19;;;21.32;45.14
36502;BME280;25393;46.108;3.390;2023-02-18T14:57:53;99010.97;;;20.78;46.68
36502;BME280;25393;46.108;3.390;2023-02-18T15:00:23;99028.59;;;20.61;47.42
36502;BME280;25393;46.108;3.390;2023-02-18T15:02:53;99019.06;;;20.19;46.93
36502;BME280;25393;46.108;3.390;2023-02-18T15:05:26;99022.13;;;19.77;48.02
36502;BME280;25393;46.108;3.390;2023-02-18T15:11:04;99022.41;;;20.48;47.11
36502;BME280;25393;46.108;3.390;2023-02-18T15:13:40;99012.44;;;20.68;46.50
36502;BME280;25393;46.108;3.390;2023-02-18T15:16:35;99012.34;;;20.94;46.15
36502;BME280;25393;46.108;3.390;2023-02-18T15:19:10;99009.63;;;21.01;45.61
36502;BME280;25393;46.108;3.390;2023-02-18T15:21:42;99000.41;;;20.70;46.03
36502;BME280;25393;46.108;3.390;2023-02-18T15:26:47;99017.16;;;20.72;45.99
36502;BME280;25393;46.108;3.390;2023-02-18T15:29:23;99010.59;;;20.62;46.08
36502;BME280;25393;46.108;3.390;2023-02-18T15:31:50;99014.72;;;20.64;47.10
36502;BME280;25393;46.108;3.390;2023-02-18T15:34:37;99009.38;;;20.51;46.87
36502;BME280;25393;46.108;3.390;2023-02-18T15:37:06;99008.50;;;20.64;47.19
36502;BME280;25393;46.108;3.390;2023-02-18T15:39:39;99013.00;;;20.83;47.34